Abington, Massachusetts
Current Conditions -  °F | °C
As of 6:53 PM on Tuesday 25 Nov 2014 (Local Time) from KOWD Reporting Station
Clear Clear  
Wind Chill: 51°   Ceiling: Unl
Heat Index: 51°   Visibility: 10mi
Dew Point: 25°   Wind: 8mph
Humidity: 36%   Direction: 240°WSW
Pressure: 30"   Gusts: NA
Location:  42.12°N, 70.96°W
Report Text: KOWD 252353Z 24007KT 10SM CLR 11/M04 A3000 RMK AO2 SLP159 T01061039 10161 20106 51031
Loading
Personal Weather Stations






























Interactive Weather Map New forecast layout! Learn more

10-Day Weather Forecast

Advertisements
Track Severe Weather on mobile